Harmon, Ohio
Current Conditions -  °F | °C
As of 7:51 PM on Tuesday 21 Oct 2014 (Local Time) from KCAK Reporting Station
Light Rain Light Rain  
Wind Chill: 43°   Ceiling: 600
Heat Index: 47°   Visibility: 3mi
Dew Point: 43°   Wind: 8mph
Humidity: 86%   Direction: 320°NW
Pressure: 30.03"   Gusts: NA
Location:  40.7079°N, 81.5547°W
Report Text: KCAK 212351Z 32007KT 3SM -RA BR OVC006 08/06 A3003 RMK AO2 SFC VIS 4 SLP174 P0001 60002 T00830061 10106 20083 53017 $
Loading
Personal Weather Stations






























Interactive Weather Map
Tropical Storm Tracking
New forecast layout! Learn more

10-Day Weather Forecast

Advertisements
Track Severe Weather on mobile